Time;durP1;ratioP1;P1;durP2;ratioP2;P2;SDS_P1;SDS_P2;PMS_P1;PMS_P2;Temp;Humidity;BMP_temperature;BMP_pressure;BME280_temperature;BME280_humidity;BME280_pressure;Samples;Min_cycle;Max_cycle;Signal;HPM_P1;HPM_P2
2021/12/28 00:02:15;;;;;;;18.27;8.02;;;2.70;99.90;;;;;;5045326;28;20120;-72
2021/12/28 00:04:40;;;;;;;25.40;7.85;;;2.70;99.90;;;;;;5045730;28;20521;-71
2021/12/28 00:07:06;;;;;;;16.00;8.98;;;2.70;99.90;;;;;;5045354;28;20037;-73
2021/12/28 00:09:32;;;;;;;24.67;8.25;;;2.80;99.90;;;;;;5045310;28;20054;-72
2021/12/28 00:11:58;;;;;;;18.67;7.43;;;2.80;99.90;;;;;;5044458;28;20029;-72
2021/12/28 00:14:29;;;;;;;22.83;9.30;;;2.80;99.90;;;;;;5045290;28;20067;-72
2021/12/28 00:19:42;;;;;;;22.85;7.47;;;2.80;99.90;;;;;;5025650;28;20485;-73
2021/12/28 00:22:08;;;;;;;19.00;8.07;;;2.80;99.90;;;;;;5025257;28;20026;-72
2021/12/28 00:24:35;;;;;;;23.30;8.13;;;2.80;99.90;;;;;;5043865;28;20044;-73
2021/12/28 00:27:02;;;;;;;21.58;7.95;;;2.80;99.90;;;;;;5045464;28;20021;-73
2021/12/28 00:29:27;;;;;;;22.15;8.57;;;2.90;99.90;;;;;;5044942;28;20029;-73
2021/12/28 00:31:53;;;;;;;19.88;8.88;;;2.90;99.90;;;;;;5045206;28;20029;-72
2021/12/28 00:34:18;;;;;;;19.20;7.70;;;2.90;99.90;;;;;;5044306;28;20026;-72
2021/12/28 00:36:44;;;;;;;24.42;7.85;;;2.90;99.90;;;;;;5044543;28;20063;-73
2021/12/28 00:39:13;;;;;;;23.30;9.07;;;2.90;99.90;;;;;;5044982;28;20405;-73
2021/12/28 00:41:40;;;;;;;19.30;8.30;;;2.90;99.90;;;;;;5044919;28;20399;-73
2021/12/28 00:44:06;;;;;;;19.88;7.70;;;2.90;99.90;;;;;;5044728;28;20048;-73
2021/12/28 00:46:32;;;;;;;18.27;8.07;;;2.90;99.90;;;;;;5045042;28;20038;-74
2021/12/28 00:48:58;;;;;;;20.15;7.30;;;3.00;99.90;;;;;;5060083;28;20080;-74
2021/12/28 00:51:24;;;;;;;19.92;8.70;;;3.00;99.90;;;;;;5045001;28;20033;-72
2021/12/28 00:53:50;;;;;;;25.02;8.65;;;3.00;99.90;;;;;;5060442;28;20041;-73
2021/12/28 00:56:16;;;;;;;13.80;7.03;;;3.00;99.90;;;;;;5044127;28;20029;-73
2021/12/28 00:58:41;;;;;;;21.15;7.32;;;3.00;99.90;;;;;;5044588;28;20462;-73
2021/12/28 01:01:07;;;;;;;22.25;7.75;;;3.00;99.90;;;;;;5044768;28;20492;-72
2021/12/28 01:03:34;;;;;;;24.45;8.85;;;3.00;99.90;;;;;;5044666;28;20036;-73
2021/12/28 01:06:04;;;;;;;14.82;6.45;;;3.00;99.90;;;;;;5044713;28;20026;-74
2021/12/28 01:08:31;;;;;;;17.98;7.55;;;3.00;99.90;;;;;;5044618;28;20029;-74
2021/12/28 01:10:58;;;;;;;14.15;6.82;;;3.00;99.90;;;;;;5044755;28;20041;-73
2021/12/28 01:13:24;;;;;;;20.75;7.55;;;3.00;99.90;;;;;;5044914;28;20109;-73
2021/12/28 01:15:51;;;;;;;15.38;6.93;;;3.00;99.90;;;;;;5044473;28;20025;-72
2021/12/28 01:18:18;;;;;;;18.27;8.30;;;3.00;99.90;;;;;;5044295;28;20025;-73
2021/12/28 01:20:44;;;;;;;19.10;8.13;;;3.00;99.90;;;;;;5044411;28;20115;-72
2021/12/28 01:23:11;;;;;;;16.38;7.60;;;3.00;99.90;;;;;;5044412;28;20029;-72
2021/12/28 01:25:37;;;;;;;14.35;7.03;;;3.00;99.90;;;;;;5044198;28;20044;-72
2021/12/28 01:28:05;;;;;;;17.17;7.43;;;3.10;99.90;;;;;;5043428;28;20032;-73
2021/12/28 01:30:31;;;;;;;24.55;8.45;;;3.10;99.90;;;;;;5043109;28;20025;-72
2021/12/28 01:32:59;;;;;;;15.60;6.13;;;3.10;99.90;;;;;;5044527;28;20033;-72
2021/12/28 01:35:28;;;;;;;19.20;7.68;;;3.20;99.90;;;;;;5043341;28;20033;-72
2021/12/28 01:37:55;;;;;;;15.02;6.63;;;3.20;99.90;;;;;;5044311;28;20147;-72
2021/12/28 01:40:29;;;;;;;19.63;8.48;;;3.20;99.90;;;;;;5042711;28;20497;-73
2021/12/28 01:43:00;;;;;;;17.67;6.20;;;3.20;99.90;;;;;;5044446;28;20030;-72
2021/12/28 01:45:32;;;;;;;17.33;8.05;;;3.30;99.90;;;;;;5042665;28;20040;-71
2021/12/28 01:47:59;;;;;;;16.17;6.30;;;3.30;99.90;;;;;;5044684;28;20029;-72
2021/12/28 01:50:25;;;;;;;15.75;6.43;;;3.20;99.90;;;;;;5044413;28;20040;-71
2021/12/28 01:52:50;;;;;;;16.98;6.97;;;3.30;99.90;;;;;;5043745;28;20029;-72
2021/12/28 01:55:16;;;;;;;14.80;7.00;;;3.30;99.90;;;;;;5044479;28;20032;-71
2021/12/28 01:57:44;;;;;;;16.55;7.78;;;3.30;99.90;;;;;;5044097;28;20038;-72
2021/12/28 02:00:10;;;;;;;16.05;8.05;;;3.40;99.90;;;;;;5043269;28;20064;-71
2021/12/28 02:02:36;;;;;;;19.45;8.13;;;3.40;99.90;;;;;;5044189;28;20377;-73
2021/12/28 02:05:03;;;;;;;14.70;6.07;;;3.40;99.90;;;;;;5044432;28;20045;-71
2021/12/28 02:07:29;;;;;;;15.55;7.07;;;3.40;99.90;;;;;;5044356;28;20115;-72
2021/12/28 02:09:55;;;;;;;19.23;7.53;;;3.50;99.90;;;;;;5047850;28;20049;-72
2021/12/28 02:12:21;;;;;;;16.83;6.47;;;3.50;99.90;;;;;;5046727;28;20458;-72
2021/12/28 02:14:47;;;;;;;15.73;7.25;;;3.50;99.90;;;;;;5047396;28;20031;-72
2021/12/28 02:17:14;;;;;;;16.80;6.30;;;3.50;99.90;;;;;;5047607;28;20065;-74
2021/12/28 02:19:40;;;;;;;17.85;8.05;;;3.50;99.90;;;;;;5047481;28;20465;-72
2021/12/28 02:22:09;;;;;;;14.57;7.18;;;3.60;99.90;;;;;;5047031;28;20028;-74
2021/12/28 02:24:35;;;;;;;15.52;7.38;;;3.60;99.90;;;;;;5047572;28;20052;-72
2021/12/28 02:27:01;;;;;;;20.00;7.00;;;3.60;99.90;;;;;;5045646;28;20513;-73
2021/12/28 02:29:26;;;;;;;16.08;6.32;;;3.60;99.90;;;;;;5047369;28;20022;-71
2021/12/28 02:31:55;;;;;;;22.35;7.93;;;3.60;99.90;;;;;;5047609;28;20033;-72
2021/12/28 02:34:25;;;;;;;23.80;7.63;;;3.60;99.90;;;;;;5046496;28;20030;-71
2021/12/28 02:36:51;;;;;;;15.50;6.07;;;3.60;99.90;;;;;;5047335;28;20030;-73
2021/12/28 02:39:18;;;;;;;17.55;6.68;;;3.60;99.90;;;;;;5046364;28;20069;-72
2021/12/28 02:41:44;;;;;;;18.20;7.15;;;3.60;99.90;;;;;;5045737;28;20025;-72
2021/12/28 02:44:09;;;;;;;17.00;7.07;;;3.60;99.90;;;;;;5045777;28;20113;-73
2021/12/28 02:46:35;;;;;;;19.00;7.15;;;3.60;99.90;;;;;;5046880;28;20029;-72
2021/12/28 02:49:02;;;;;;;21.10;8.25;;;3.60;99.90;;;;;;5047192;28;20040;-73
2021/12/28 02:51:28;;;;;;;18.90;7.40;;;3.60;99.90;;;;;;5047539;28;20037;-73
2021/12/28 02:53:54;;;;;;;15.20;7.70;;;3.60;99.90;;;;;;5046658;28;20025;-72
2021/12/28 02:56:20;;;;;;;18.38;6.88;;;3.70;99.90;;;;;;5046996;28;20021;-72
2021/12/28 02:58:48;;;;;;;15.82;6.25;;;3.70;99.90;;;;;;5046892;28;20021;-73
2021/12/28 03:01:24;;;;;;;19.67;7.40;;;3.70;99.90;;;;;;5045293;28;20564;-73
2021/12/28 03:04:07;;;;;;;21.17;7.30;;;3.70;99.90;;;;;;5046961;28;20033;-74
2021/12/28 03:06:34;;;;;;;20.90;8.47;;;3.70;99.90;;;;;;5046961;28;20382;-73
2021/12/28 03:09:04;;;;;;;18.17;7.57;;;3.70;99.90;;;;;;5046364;28;20064;-72
2021/12/28 03:11:30;;;;;;;17.35;7.18;;;3.70;99.90;;;;;;5046959;28;20071;-73
2021/12/28 03:14:01;;;;;;;20.08;7.90;;;3.70;99.90;;;;;;5046474;28;20430;-73
2021/12/28 03:16:29;;;;;;;18.50;7.15;;;3.70;99.90;;;;;;5045104;28;20036;-73
2021/12/28 03:18:55;;;;;;;24.02;7.45;;;3.70;99.90;;;;;;5046327;28;20187;-72
2021/12/28 03:21:23;;;;;;;14.18;6.25;;;3.70;99.90;;;;;;5046057;28;20049;-73
2021/12/28 03:23:54;;;;;;;16.63;6.97;;;3.70;99.90;;;;;;5046214;28;20025;-72
2021/12/28 03:26:20;;;;;;;19.48;8.02;;;3.70;99.90;;;;;;5046742;28;20041;-72
2021/12/28 03:28:46;;;;;;;18.80;8.10;;;3.70;99.90;;;;;;5046012;28;20021;-73
2021/12/28 03:31:19;;;;;;;21.65;8.05;;;3.70;99.90;;;;;;5046213;28;20044;-74
2021/12/28 03:33:53;;;;;;;20.10;7.70;;;3.70;99.90;;;;;;5046309;28;20406;-72
2021/12/28 03:36:20;;;;;;;17.92;7.30;;;3.70;99.90;;;;;;5045825;28;20792;-73
2021/12/28 03:38:47;;;;;;;23.13;9.73;;;3.70;99.90;;;;;;5046276;28;20033;-72
2021/12/28 03:41:14;;;;;;;24.23;8.45;;;3.70;99.90;;;;;;5046134;28;20113;-74
2021/12/28 03:43:45;;;;;;;15.82;6.90;;;3.70;99.90;;;;;;5045731;28;20028;-72
2021/12/28 03:46:11;;;;;;;13.77;6.85;;;3.70;99.90;;;;;;5046049;28;20033;-73
2021/12/28 03:48:38;;;;;;;16.25;8.07;;;3.70;99.90;;;;;;5045816;28;20038;-72
2021/12/28 03:51:06;;;;;;;22.80;8.32;;;3.60;99.90;;;;;;5044741;28;20037;-74
2021/12/28 03:53:43;;;;;;;19.55;7.55;;;3.60;99.90;;;;;;5044825;28;20025;-75
2021/12/28 03:56:10;;;;;;;25.27;8.32;;;3.70;99.90;;;;;;5045394;28;20087;-73
2021/12/28 03:58:37;;;;;;;16.52;7.40;;;3.60;99.90;;;;;;5046226;28;20049;-73
2021/12/28 04:01:05;;;;;;;23.27;7.95;;;3.60;99.90;;;;;;5045869;28;20044;-71
2021/12/28 04:03:31;;;;;;;16.50;6.78;;;3.60;99.90;;;;;;5045532;28;20029;-73
2021/12/28 04:05:57;;;;;;;18.55;7.97;;;3.60;99.90;;;;;;5046186;28;20030;-73
2021/12/28 04:08:24;;;;;;;19.17;7.93;;;3.60;99.90;;;;;;5045162;28;20021;-72
2021/12/28 04:11:02;;;;;;;29.92;9.23;;;3.60;99.90;;;;;;5044407;28;20030;-73
2021/12/28 04:13:28;;;;;;;19.52;8.55;;;3.60;99.90;;;;;;5045877;28;20036;-71
2021/12/28 04:15:54;;;;;;;13.73;6.82;;;3.60;99.90;;;;;;5045252;28;20033;-73
2021/12/28 04:18:20;;;;;;;21.25;8.18;;;3.60;99.90;;;;;;5045369;28;20488;-73
2021/12/28 04:20:46;;;;;;;20.20;8.48;;;3.60;99.90;;;;;;5045298;28;20037;-73
2021/12/28 04:23:12;;;;;;;20.35;8.43;;;3.60;99.90;;;;;;5045157;28;20029;-73
2021/12/28 04:25:38;;;;;;;25.15;8.30;;;3.60;99.90;;;;;;5045635;28;20083;-74
2021/12/28 04:28:04;;;;;;;23.75;8.63;;;3.60;99.90;;;;;;5045428;28;20018;-73
2021/12/28 04:30:29;;;;;;;19.77;8.07;;;3.60;99.90;;;;;;5044186;28;20061;-73
2021/12/28 04:32:58;;;;;;;20.98;8.43;;;3.60;99.90;;;;;;5045550;28;20029;-74
2021/12/28 04:35:24;;;;;;;25.05;7.55;;;3.60;99.90;;;;;;5045194;28;20466;-72
2021/12/28 04:37:50;;;;;;;26.45;9.90;;;3.60;99.90;;;;;;5043298;28;20036;-73
2021/12/28 04:40:15;;;;;;;23.38;9.80;;;3.60;99.90;;;;;;5045108;28;20041;-72
2021/12/28 04:42:42;;;;;;;19.42;8.23;;;3.60;99.90;;;;;;5043698;28;20032;-72
2021/12/28 04:45:10;;;;;;;24.20;10.25;;;3.60;99.90;;;;;;5055013;28;20492;-73
2021/12/28 04:47:37;;;;;;;18.35;8.02;;;3.60;99.90;;;;;;5064762;28;20033;-73
2021/12/28 04:50:11;;;;;;;24.17;9.90;;;3.70;99.90;;;;;;5064655;28;20021;-74
2021/12/28 04:52:38;;;;;;;21.92;8.70;;;3.70;99.90;;;;;;5064545;28;20025;-73
2021/12/28 04:55:13;;;;;;;26.13;8.60;;;3.60;99.90;;;;;;5064774;28;20041;-74
2021/12/28 04:57:40;;;;;;;28.98;8.88;;;3.60;99.90;;;;;;5062950;28;20113;-73
2021/12/28 05:00:12;;;;;;;21.45;8.30;;;3.70;99.90;;;;;;5064125;28;20037;-74
2021/12/28 05:02:37;;;;;;;18.13;8.18;;;3.70;99.90;;;;;;5063130;28;20576;-73
2021/12/28 05:05:03;;;;;;;22.45;9.35;;;3.70;99.90;;;;;;5062680;28;20097;-73
2021/12/28 05:07:30;;;;;;;27.75;8.23;;;3.70;99.90;;;;;;5064396;28;20017;-74
2021/12/28 05:09:57;;;;;;;24.67;9.50;;;3.70;99.90;;;;;;5064326;28;20044;-72
2021/12/28 05:12:27;;;;;;;19.92;9.90;;;3.70;99.90;;;;;;5064335;28;20493;-73
2021/12/28 05:14:53;;;;;;;26.33;8.90;;;3.70;99.90;;;;;;5064498;28;20527;-72
2021/12/28 05:17:19;;;;;;;18.13;8.10;;;3.70;99.90;;;;;;5063113;28;20013;-72
2021/12/28 05:19:45;;;;;;;18.25;9.18;;;3.70;99.90;;;;;;5043634;28;20048;-72
2021/12/28 05:22:12;;;;;;;23.65;7.70;;;3.70;99.90;;;;;;5044207;28;20034;-73
2021/12/28 05:24:38;;;;;;;14.95;6.47;;;3.70;99.90;;;;;;5044255;28;20047;-73
2021/12/28 05:27:04;;;;;;;18.55;8.50;;;3.70;99.90;;;;;;5044040;28;20032;-72
2021/12/28 05:29:31;;;;;;;15.25;7.28;;;3.70;99.90;;;;;;5044428;28;20031;-73
2021/12/28 05:31:57;;;;;;;28.08;9.32;;;3.70;99.90;;;;;;5043988;28;20022;-73
2021/12/28 05:34:22;;;;;;;22.80;7.43;;;3.70;99.90;;;;;;5043262;28;20026;-71
2021/12/28 05:36:48;;;;;;;19.67;9.82;;;3.70;99.90;;;;;;5044421;28;20033;-73
2021/12/28 05:39:14;;;;;;;25.05;7.72;;;3.70;99.90;;;;;;5044108;28;20037;-71
2021/12/28 05:41:40;;;;;;;25.52;10.10;;;3.70;99.90;;;;;;5044350;28;20025;-71
2021/12/28 05:44:05;;;;;;;23.48;9.95;;;3.70;99.90;;;;;;5048009;28;20032;-73
2021/12/28 05:46:31;;;;;;;20.63;8.13;;;3.70;99.90;;;;;;5047616;28;20030;-73
2021/12/28 05:48:57;;;;;;;22.75;8.40;;;3.70;99.90;;;;;;5047770;28;20079;-73
2021/12/28 05:51:23;;;;;;;22.90;9.55;;;3.70;99.90;;;;;;5048159;28;20119;-72
2021/12/28 05:53:49;;;;;;;16.80;7.25;;;3.70;99.90;;;;;;5048059;28;20474;-72
2021/12/28 05:56:14;;;;;;;25.13;8.18;;;3.70;99.90;;;;;;5047464;28;20033;-72
2021/12/28 05:58:40;;;;;;;15.15;6.85;;;3.70;99.90;;;;;;5047735;28;20021;-72
2021/12/28 06:01:06;;;;;;;28.85;9.73;;;3.70;99.90;;;;;;5046975;28;20482;-72
2021/12/28 06:03:35;;;;;;;17.98;8.10;;;3.60;99.90;;;;;;5046634;28;20056;-74
2021/12/28 06:06:01;;;;;;;19.20;8.40;;;3.70;99.90;;;;;;5046553;28;20128;-73
2021/12/28 06:08:27;;;;;;;22.92;9.38;;;3.60;99.90;;;;;;5046351;28;20037;-71
2021/12/28 06:10:52;;;;;;;17.23;8.27;;;3.60;99.90;;;;;;5046964;28;20030;-72
2021/12/28 06:13:18;;;;;;;21.05;8.68;;;3.70;99.90;;;;;;5047538;28;20021;-73
2021/12/28 06:15:44;;;;;;;27.15;9.02;;;3.70;99.90;;;;;;5047293;28;20056;-72
2021/12/28 06:18:09;;;;;;;17.02;6.82;;;3.70;99.90;;;;;;5047639;28;20040;-72
2021/12/28 06:20:35;;;;;;;22.52;8.63;;;3.70;99.90;;;;;;5047564;28;20041;-73
2021/12/28 06:23:01;;;;;;;23.13;8.88;;;3.70;99.90;;;;;;5047647;28;20052;-72
2021/12/28 06:25:27;;;;;;;23.08;9.32;;;3.80;99.90;;;;;;5047708;28;20026;-73
2021/12/28 06:27:52;;;;;;;17.30;7.60;;;3.70;99.90;;;;;;5061580;28;20030;-73
2021/12/28 06:30:18;;;;;;;19.10;7.82;;;3.60;99.90;;;;;;5046862;28;20041;-73
2021/12/28 06:32:44;;;;;;;20.25;8.75;;;3.60;99.90;;;;;;5046815;28;20101;-73
2021/12/28 06:35:10;;;;;;;22.52;7.90;;;3.60;99.90;;;;;;5047060;28;20033;-73
2021/12/28 06:37:36;;;;;;;21.92;8.38;;;3.60;99.90;;;;;;5046435;28;20028;-73
2021/12/28 06:40:04;;;;;;;18.10;7.80;;;3.60;99.90;;;;;;5047392;28;20077;-73
2021/12/28 06:42:30;;;;;;;22.50;8.88;;;3.60;99.90;;;;;;5047421;28;20048;-73
2021/12/28 06:44:56;;;;;;;22.15;9.90;;;3.50;99.90;;;;;;5046842;28;20025;-72
2021/12/28 06:47:21;;;;;;;24.65;7.88;;;3.50;99.90;;;;;;5046839;28;20045;-72
2021/12/28 06:49:47;;;;;;;19.67;7.80;;;3.50;99.90;;;;;;5047159;28;20021;-73
2021/12/28 06:52:13;;;;;;;24.50;8.65;;;3.50;99.90;;;;;;5046550;28;20021;-73
2021/12/28 06:54:39;;;;;;;18.83;7.90;;;3.40;99.90;;;;;;5046024;28;20041;-73
2021/12/28 06:57:07;;;;;;;22.58;7.55;;;3.30;99.90;;;;;;5046570;28;20026;-74
2021/12/28 06:59:43;;;;;;;16.52;7.43;;;3.30;99.90;;;;;;5046762;28;20390;-73
2021/12/28 07:02:13;;;;;;;18.83;8.07;;;3.30;99.90;;;;;;5046830;28;20027;-73
2021/12/28 07:04:39;;;;;;;23.90;6.93;;;3.20;99.90;;;;;;5046362;28;20041;-73
2021/12/28 07:07:05;;;;;;;20.85;8.40;;;3.20;99.90;;;;;;5046430;28;20021;-74
2021/12/28 07:09:32;;;;;;;25.15;8.25;;;3.20;99.90;;;;;;5046024;28;20057;-74
2021/12/28 07:11:57;;;;;;;17.08;7.10;;;3.20;99.90;;;;;;5045707;28;20045;-73
2021/12/28 07:14:23;;;;;;;19.95;8.07;;;3.20;99.90;;;;;;5046237;28;20022;-73
2021/12/28 07:16:48;;;;;;;19.08;8.00;;;3.10;99.90;;;;;;5044963;28;20033;-74
2021/12/28 07:19:14;;;;;;;27.77;8.90;;;3.10;99.90;;;;;;5043144;28;20049;-73
2021/12/28 07:21:41;;;;;;;15.38;6.68;;;3.10;99.90;;;;;;5045512;28;20034;-72
2021/12/28 07:24:08;;;;;;;18.05;7.97;;;3.20;99.90;;;;;;5041926;28;20033;-73
2021/12/28 07:26:35;;;;;;;23.98;8.82;;;3.10;99.90;;;;;;5046078;28;20055;-73
2021/12/28 07:29:02;;;;;;;15.60;7.20;;;3.10;99.90;;;;;;5046421;28;20033;-72
2021/12/28 07:31:28;;;;;;;20.00;7.85;;;3.10;99.90;;;;;;5060964;28;20061;-72
2021/12/28 07:33:54;;;;;;;19.73;7.95;;;3.00;99.90;;;;;;5039154;28;20052;-71
2021/12/28 07:36:20;;;;;;;17.13;7.70;;;3.00;99.90;;;;;;5042156;28;20034;-73
2021/12/28 07:38:46;;;;;;;22.05;7.78;;;3.00;99.90;;;;;;5045218;28;20466;-74
2021/12/28 07:41:12;;;;;;;16.27;6.95;;;3.00;99.90;;;;;;5043807;28;20037;-74
2021/12/28 07:43:38;;;;;;;24.95;7.80;;;3.00;99.90;;;;;;5046086;28;20083;-73
2021/12/28 07:46:04;;;;;;;19.35;9.07;;;3.00;99.90;;;;;;5043892;28;20057;-73
2021/12/28 07:48:30;;;;;;;21.50;7.25;;;3.10;99.90;;;;;;5044203;28;20104;-73
2021/12/28 07:50:56;;;;;;;23.83;7.45;;;3.10;99.90;;;;;;5035377;28;20036;-73
2021/12/28 07:53:21;;;;;;;23.15;9.13;;;3.10;99.90;;;;;;5040491;28;20033;-73
2021/12/28 07:55:47;;;;;;;19.60;9.13;;;3.10;99.90;;;;;;5042124;28;20044;-74
2021/12/28 07:58:13;;;;;;;25.15;8.18;;;3.20;99.90;;;;;;5045387;28;20029;-73
2021/12/28 08:00:39;;;;;;;18.00;7.95;;;3.20;99.90;;;;;;5044151;28;20065;-73
2021/12/28 08:03:04;;;;;;;15.90;7.63;;;3.20;99.90;;;;;;5045133;28;20043;-73
2021/12/28 08:05:34;;;;;;;13.63;6.78;;;3.20;99.90;;;;;;5043240;28;20083;-76
2021/12/28 08:08:01;;;;;;;16.45;7.30;;;3.20;99.90;;;;;;5044986;28;20033;-74
2021/12/28 08:10:28;;;;;;;21.35;7.38;;;3.30;99.90;;;;;;5045591;28;20049;-72
2021/12/28 08:12:54;;;;;;;18.20;7.50;;;3.30;99.90;;;;;;5045262;28;20037;-72
2021/12/28 08:15:21;;;;;;;17.77;8.13;;;3.30;99.90;;;;;;5044663;28;20085;-73
2021/12/28 08:17:51;;;;;;;18.77;7.35;;;3.30;99.90;;;;;;5044897;28;20029;-73
2021/12/28 08:20:18;;;;;;;21.50;8.13;;;3.30;99.90;;;;;;5043352;28;20041;-72
2021/12/28 08:22:44;;;;;;;21.30;8.13;;;3.30;99.90;;;;;;5042869;28;20044;-72
2021/12/28 08:25:13;;;;;;;21.63;7.93;;;3.30;99.90;;;;;;5044880;28;20036;-73
2021/12/28 08:27:39;;;;;;;21.73;9.43;;;3.30;99.90;;;;;;5044609;28;20462;-75
2021/12/28 08:30:07;;;;;;;24.95;7.70;;;3.30;99.90;;;;;;5044946;28;20592;-75
2021/12/28 08:32:34;;;;;;;17.85;8.13;;;3.30;99.90;;;;;;5045033;28;20037;-73
2021/12/28 08:34:59;;;;;;;24.17;8.10;;;3.40;99.90;;;;;;5042304;28;20037;-74
2021/12/28 08:37:26;;;;;;;19.02;7.97;;;3.40;99.90;;;;;;5043881;28;20379;-72
2021/12/28 08:39:52;;;;;;;20.67;8.35;;;3.40;99.90;;;;;;5042938;28;20105;-73
2021/12/28 08:42:19;;;;;;;20.75;8.55;;;3.40;99.90;;;;;;5041237;28;20029;-73
2021/12/28 08:44:51;;;;;;;23.05;8.75;;;3.50;99.90;;;;;;5042515;28;20040;-74
2021/12/28 08:47:18;;;;;;;19.88;7.45;;;3.50;99.90;;;;;;5043755;28;20116;-73
2021/12/28 08:49:43;;;;;;;14.70;6.65;;;3.50;99.90;;;;;;5043696;28;20108;-73
2021/12/28 08:52:09;;;;;;;20.25;8.45;;;3.50;99.90;;;;;;5044665;28;20053;-73
2021/12/28 08:54:35;;;;;;;16.10;6.65;;;3.60;99.90;;;;;;5060021;28;20044;-74
2021/12/28 08:57:01;;;;;;;22.17;8.73;;;3.60;99.90;;;;;;5059983;28;20051;-74
2021/12/28 08:59:26;;;;;;;23.33;8.63;;;3.70;99.90;;;;;;5040981;28;20120;-73
2021/12/28 09:01:55;;;;;;;18.25;8.75;;;3.70;99.90;;;;;;5037226;28;20075;-73
2021/12/28 09:04:21;;;;;;;20.08;7.68;;;3.70;99.90;;;;;;5033283;28;20048;-73
2021/12/28 09:06:48;;;;;;;16.92;7.78;;;3.80;99.90;;;;;;5042699;28;20025;-73
2021/12/28 09:09:14;;;;;;;14.38;7.22;;;3.80;99.90;;;;;;5043660;28;20045;-73
2021/12/28 09:11:43;;;;;;;19.08;8.10;;;3.80;99.90;;;;;;5048479;28;20040;-74
2021/12/28 09:14:09;;;;;;;18.67;7.90;;;3.90;99.90;;;;;;5044538;28;20032;-74
2021/12/28 09:16:35;;;;;;;22.10;8.00;;;4.00;99.90;;;;;;5043766;28;20065;-74
2021/12/28 09:19:02;;;;;;;20.00;7.70;;;4.00;99.90;;;;;;5044584;28;20083;-73
2021/12/28 09:21:28;;;;;;;16.35;8.15;;;4.10;99.90;;;;;;5043342;28;20037;-73
2021/12/28 09:23:53;;;;;;;15.20;6.43;;;4.10;99.90;;;;;;5044156;28;20033;-73
2021/12/28 09:26:19;;;;;;;21.45;7.32;;;4.20;99.90;;;;;;5044511;28;20107;-73
2021/12/28 09:28:45;;;;;;;22.13;8.13;;;4.40;99.90;;;;;;5043741;28;20076;-73
2021/12/28 09:31:11;;;;;;;18.27;6.82;;;4.70;99.90;;;;;;5050052;28;20040;-74
2021/12/28 09:33:36;;;;;;;21.13;7.20;;;5.00;99.90;;;;;;5064473;28;20029;-74
2021/12/28 09:36:06;;;;;;;17.30;6.60;;;5.20;99.90;;;;;;5063082;28;20036;-75
2021/12/28 09:38:33;;;;;;;19.73;7.53;;;5.40;99.90;;;;;;5064158;28;20029;-74
2021/12/28 09:41:05;;;;;;;18.75;7.38;;;5.60;99.90;;;;;;5044924;28;20041;-74
2021/12/28 09:43:32;;;;;;;16.50;8.02;;;5.70;99.90;;;;;;5043607;28;20072;-74
2021/12/28 09:45:58;;;;;;;18.95;7.50;;;5.60;99.90;;;;;;5044044;28;20061;-73
2021/12/28 09:48:24;;;;;;;14.50;6.65;;;5.70;99.90;;;;;;5042746;28;20476;-73
2021/12/28 09:50:59;;;;;;;15.32;6.65;;;6.00;99.90;;;;;;5043295;28;20964;-73
2021/12/28 09:53:25;;;;;;;17.73;7.40;;;6.30;99.90;;;;;;5041367;28;20029;-74
2021/12/28 09:55:50;;;;;;;11.75;5.80;;;6.50;99.90;;;;;;5054248;28;20045;-72
2021/12/28 09:58:16;;;;;;;18.20;7.53;;;6.50;99.90;;;;;;5043858;28;20025;-73
2021/12/28 10:00:45;;;;;;;17.55;6.25;;;6.40;99.90;;;;;;5041249;28;20037;-75
2021/12/28 10:03:12;;;;;;;12.93;5.90;;;6.30;99.90;;;;;;5041667;28;20033;-74
2021/12/28 10:05:38;;;;;;;11.73;5.88;;;6.30;99.90;;;;;;5036800;28;20037;-74
2021/12/28 10:08:05;;;;;;;16.95;6.93;;;6.10;99.90;;;;;;5043863;28;20021;-74
2021/12/28 10:10:34;;;;;;;16.75;6.13;;;6.00;99.90;;;;;;5044297;28;20134;-75
2021/12/28 10:13:03;;;;;;;15.18;6.45;;;5.90;99.90;;;;;;5042912;28;20033;-76
2021/12/28 10:15:32;;;;;;;11.38;5.25;;;5.80;99.90;;;;;;5042403;28;20041;-73
2021/12/28 10:18:02;;;;;;;14.52;5.43;;;5.70;99.90;;;;;;5039179;28;20048;-73
2021/12/28 10:20:50;;;;;;;16.35;7.18;;;5.70;99.90;;;;;;5043835;28;20120;-75
2021/12/28 10:23:22;;;;;;;20.10;6.72;;;5.80;99.90;;;;;;5042186;28;20064;-74
2021/12/28 10:25:53;;;;;;;16.65;6.45;;;5.80;99.90;;;;;;5056803;28;20037;-74
2021/12/28 10:28:33;;;;;;;14.70;6.28;;;5.80;99.90;;;;;;5039190;28;20026;-73
2021/12/28 10:31:10;;;;;;;14.63;6.53;;;5.80;99.90;;;;;;5047489;28;20051;-73
2021/12/28 10:33:38;;;;;;;20.02;7.68;;;6.00;99.90;;;;;;5062618;28;20097;-74
2021/12/28 10:36:08;;;;;;;13.85;6.43;;;6.40;99.90;;;;;;5047218;28;20060;-73
2021/12/28 10:38:45;;;;;;;14.35;5.95;;;7.00;99.90;;;;;;5044156;28;20044;-74
2021/12/28 10:41:15;;;;;;;12.20;5.70;;;7.60;99.90;;;;;;5027844;28;20504;-74
2021/12/28 10:43:45;;;;;;;10.30;5.45;;;8.20;99.90;;;;;;5027307;28;20374;-73
2021/12/28 10:46:20;;;;;;;14.13;5.32;;;8.60;99.90;;;;;;5033258;28;20386;-73
2021/12/28 10:48:50;;;;;;;12.43;5.38;;;8.90;99.90;;;;;;5037116;28;20029;-73
2021/12/28 10:51:24;;;;;;;17.55;6.80;;;9.10;99.90;;;;;;5040899;28;20026;-74
2021/12/28 10:56:59;;;;;;;16.73;6.82;;;9.30;99.90;;;;;;5037209;28;20029;-74
2021/12/28 10:59:29;;;;;;;14.82;6.50;;;9.10;99.90;;;;;;5043329;28;20060;-74
2021/12/28 11:01:55;;;;;;;13.32;5.97;;;8.70;99.90;;;;;;5045166;28;20052;-74
2021/12/28 11:04:21;;;;;;;13.50;6.38;;;8.40;99.90;;;;;;5046918;28;20037;-74
2021/12/28 11:06:51;;;;;;;15.00;6.40;;;8.30;99.90;;;;;;5046678;28;20437;-74
2021/12/28 11:09:22;;;;;;;13.73;6.65;;;8.20;99.90;;;;;;5045966;28;20045;-73
2021/12/28 11:11:49;;;;;;;10.70;4.97;;;8.40;99.90;;;;;;5046303;28;20032;-74
2021/12/28 11:14:20;;;;;;;14.48;6.65;;;8.70;99.90;;;;;;5039868;28;20029;-73
2021/12/28 11:17:09;;;;;;;17.40;6.43;;;9.20;99.90;;;;;;5034674;28;20086;-74
2021/12/28 11:19:37;;;;;;;18.35;6.22;;;9.40;99.90;;;;;;5044628;28;20069;-75
2021/12/28 11:22:11;;;;;;;11.75;5.72;;;9.40;99.90;;;;;;5045649;28;20060;-74
2021/12/28 11:24:42;;;;;;;13.38;5.28;;;9.30;99.90;;;;;;5046811;28;20465;-74
2021/12/28 11:27:10;;;;;;;23.52;5.75;;;9.00;99.90;;;;;;5046428;28;20073;-74
2021/12/28 11:29:39;;;;;;;11.05;4.25;;;8.60;99.90;;;;;;5044350;28;20052;-74
2021/12/28 11:32:12;;;;;;;13.35;5.07;;;8.30;99.90;;;;;;5045731;28;20057;-73
2021/12/28 11:34:39;;;;;;;17.30;5.97;;;8.00;99.90;;;;;;5045653;28;20026;-73
2021/12/28 11:37:12;;;;;;;12.75;5.20;;;7.80;99.90;;;;;;5046161;28;20034;-73
2021/12/28 11:39:55;;;;;;;11.23;5.40;;;7.60;99.90;;;;;;5045083;28;20046;-72
2021/12/28 11:42:22;;;;;;;15.55;6.05;;;7.30;99.90;;;;;;5045514;28;20034;-73
2021/12/28 11:44:49;;;;;;;15.43;6.28;;;7.20;99.90;;;;;;5046146;28;20041;-72
2021/12/28 11:47:17;;;;;;;16.75;6.25;;;7.10;99.90;;;;;;5046107;28;20037;-73
2021/12/28 11:49:45;;;;;;;10.10;5.30;;;7.00;99.90;;;;;;5045855;28;20037;-73
2021/12/28 11:52:19;;;;;;;17.45;7.20;;;7.00;99.90;;;;;;5044378;28;20021;-74
2021/12/28 11:54:53;;;;;;;24.85;6.32;;;7.10;99.90;;;;;;5045695;28;20033;-72
2021/12/28 11:57:24;;;;;;;25.42;6.80;;;7.40;99.90;;;;;;5045741;28;20037;-72
2021/12/28 12:00:08;;;;;;;14.48;6.90;;;7.70;99.90;;;;;;5045932;28;20057;-73
2021/12/28 12:02:47;;;;;;;20.77;6.68;;;7.80;99.90;;;;;;5045574;28;20025;-73
2021/12/28 12:05:19;;;;;;;18.48;7.28;;;7.70;99.90;;;;;;5046042;28;20030;-73
2021/12/28 12:07:46;;;;;;;14.05;6.93;;;7.50;99.90;;;;;;5043725;28;20049;-72
2021/12/28 12:10:18;;;;;;;15.30;6.05;;;7.30;99.90;;;;;;5043527;28;20414;-73
2021/12/28 12:12:58;;;;;;;10.68;5.45;;;7.20;99.90;;;;;;5045025;28;20029;-73
2021/12/28 12:15:26;;;;;;;18.63;6.18;;;7.00;99.90;;;;;;5029000;28;20496;-73
2021/12/28 12:17:57;;;;;;;17.50;5.55;;;7.00;99.90;;;;;;5045343;28;20032;-72
2021/12/28 12:20:30;;;;;;;14.55;4.80;;;6.90;99.90;;;;;;5044063;28;20124;-72
2021/12/28 12:23:09;;;;;;;11.85;5.13;;;6.90;99.90;;;;;;5044410;28;20043;-73
2021/12/28 12:25:58;;;;;;;9.77;4.88;;;6.80;99.90;;;;;;5044882;28;20040;-74
2021/12/28 12:28:33;;;;;;;15.07;5.75;;;6.80;99.90;;;;;;5044814;28;20037;-74
2021/12/28 12:31:00;;;;;;;9.82;5.22;;;6.70;99.90;;;;;;5044850;28;20037;-73
2021/12/28 12:33:55;;;;;;;14.10;6.20;;;6.60;99.90;;;;;;5045439;28;20077;-72
2021/12/28 12:36:41;;;;;;;12.35;5.13;;;6.50;99.90;;;;;;5044513;28;20095;-73
2021/12/28 12:39:10;;;;;;;19.00;6.43;;;6.50;99.90;;;;;;5045106;28;20033;-73
2021/12/28 12:41:55;;;;;;;10.68;5.13;;;6.50;99.90;;;;;;5043908;28;20055;-74
2021/12/28 12:44:26;;;;;;;10.55;4.78;;;6.60;99.90;;;;;;5043159;28;20025;-73
2021/12/28 12:47:11;;;;;;;13.65;5.38;;;6.60;99.90;;;;;;5045003;28;20029;-73
2021/12/28 12:49:37;;;;;;;11.65;4.53;;;6.50;99.90;;;;;;5044848;28;20045;-74
2021/12/28 12:52:18;;;;;;;15.52;6.13;;;6.50;99.90;;;;;;5043951;28;20052;-74
2021/12/28 12:54:53;;;;;;;13.05;5.30;;;6.50;99.90;;;;;;5055115;28;20034;-73
2021/12/28 12:57:26;;;;;;;19.13;6.05;;;6.50;99.90;;;;;;5043029;28;20036;-74
2021/12/28 13:00:20;;;;;;;20.20;5.93;;;6.50;99.90;;;;;;5044308;28;20065;-74